Time;durP1;ratioP1;P1;durP2;ratioP2;P2;SDS_P1;SDS_P2;PMS_P1;PMS_P2;Temp;Humidity;BMP_temperature;BMP_pressure;BME280_temperature;BME280_humidity;BME280_pressure;Samples;Min_cycle;Max_cycle;Signal;HPM_P1;HPM_P2
2022/07/14 00:02:25;;;;;;;13.10;3.05;;;;;;;;;;5012444;28;20408;-75
2022/07/14 00:04:51;;;;;;;12.10;3.20;;;;;;;;;;5012403;28;20029;-75
2022/07/14 00:07:17;;;;;;;12.32;3.30;;;;;;;;;;5010689;28;20034;-75
2022/07/14 00:09:43;;;;;;;19.98;3.22;;;;;;;;;;5012178;28;20048;-75
2022/07/14 00:12:09;;;;;;;11.70;3.20;;;;;;;;;;5012298;28;20483;-75
2022/07/14 00:14:35;;;;;;;18.15;3.53;;;;;;;;;;5012225;28;20487;-75
2022/07/14 00:17:01;;;;;;;11.68;2.80;;;;;;;;;;5012002;28;20026;-75
2022/07/14 00:19:28;;;;;;;13.23;2.97;;;;;;;;;;5012744;28;20029;-75
2022/07/14 00:21:54;;;;;;;11.10;3.10;;;;;;;;;;5030368;28;20017;-75
2022/07/14 00:24:20;;;;;;;14.63;3.40;;;;;;;;;;5031913;28;20033;-75
2022/07/14 00:26:46;;;;;;;10.93;3.45;;;;;;;;;;5031618;28;20041;-75
2022/07/14 00:29:12;;;;;;;12.75;3.78;;;;;;;;;;5030425;28;20037;-75
2022/07/14 00:31:38;;;;;;;16.98;3.17;;;;;;;;;;5030564;28;20022;-75
2022/07/14 00:34:04;;;;;;;11.55;3.00;;;;;;;;;;5031642;28;20111;-75
2022/07/14 00:36:30;;;;;;;10.85;2.90;;;;;;;;;;5031467;28;20022;-75
2022/07/14 00:38:56;;;;;;;13.75;2.83;;;;;;;;;;5031695;28;20105;-75
2022/07/14 00:41:22;;;;;;;14.10;3.10;;;;;;;;;;5031483;28;20087;-75
2022/07/14 00:43:49;;;;;;;11.45;2.95;;;;;;;;;;5031740;28;20021;-75
2022/07/14 00:46:15;;;;;;;13.38;3.03;;;;;;;;;;5017838;28;20030;-75
2022/07/14 00:48:41;;;;;;;11.80;3.72;;;;;;;;;;5011988;28;20180;-75
2022/07/14 00:51:07;;;;;;;11.10;3.47;;;;;;;;;;5011756;28;20030;-75
2022/07/14 00:53:33;;;;;;;14.30;3.15;;;;;;;;;;5011866;28;20409;-75
2022/07/14 00:55:59;;;;;;;15.57;3.70;;;;;;;;;;5011683;28;20747;-75
2022/07/14 00:58:25;;;;;;;13.13;3.83;;;;;;;;;;5011900;28;20514;-75
2022/07/14 01:00:52;;;;;;;16.85;4.05;;;;;;;;;;5011695;28;20026;-75
2022/07/14 01:03:18;;;;;;;13.90;3.80;;;;;;;;;;5011813;28;20710;-75
2022/07/14 01:05:44;;;;;;;16.35;3.30;;;;;;;;;;5011584;28;20038;-75
2022/07/14 01:08:10;;;;;;;19.27;4.40;;;;;;;;;;5011795;28;20373;-75
2022/07/14 01:10:36;;;;;;;10.48;3.60;;;;;;;;;;5011748;28;20030;-75
2022/07/14 01:13:06;;;;;;;15.90;4.00;;;;;;;;;;5011794;28;20038;-75
2022/07/14 01:15:32;;;;;;;23.15;5.20;;;;;;;;;;5011452;28;20026;-75
2022/07/14 01:17:58;;;;;;;20.02;5.35;;;;;;;;;;5011505;28;20026;-75
2022/07/14 01:20:24;;;;;;;13.63;3.83;;;;;;;;;;5019788;28;20036;-75
2022/07/14 01:22:51;;;;;;;17.85;4.25;;;;;;;;;;5029838;28;20021;-75
2022/07/14 01:25:17;;;;;;;16.13;4.32;;;;;;;;;;5031175;28;20087;-75
2022/07/14 01:27:43;;;;;;;15.77;4.00;;;;;;;;;;5031260;28;20095;-75
2022/07/14 01:30:10;;;;;;;18.10;4.47;;;;;;;;;;5017851;28;20041;-75
2022/07/14 01:32:36;;;;;;;18.02;3.85;;;;;;;;;;5011353;28;20108;-75
2022/07/14 01:35:03;;;;;;;14.20;4.18;;;;;;;;;;5011200;28;20038;-75
2022/07/14 01:37:29;;;;;;;18.33;4.43;;;;;;;;;;5011356;28;20022;-75
2022/07/14 01:39:56;;;;;;;13.30;4.13;;;;;;;;;;5011140;28;20034;-75
2022/07/14 01:42:22;;;;;;;13.25;3.70;;;;;;;;;;5012924;28;20030;-75
2022/07/14 01:44:48;;;;;;;21.65;4.00;;;;;;;;;;5014559;28;20073;-75
2022/07/14 01:47:14;;;;;;;14.80;4.57;;;;;;;;;;5014637;28;20021;-75
2022/07/14 01:49:40;;;;;;;11.82;4.00;;;;;;;;;;5014528;28;20461;-75
2022/07/14 01:52:06;;;;;;;12.20;4.20;;;;;;;;;;5014619;28;20033;-75
2022/07/14 01:54:33;;;;;;;15.20;4.00;;;;;;;;;;5014643;28;20026;-75
2022/07/14 01:56:59;;;;;;;21.52;4.75;;;;;;;;;;5013872;28;20025;-75
2022/07/14 01:59:25;;;;;;;15.55;4.70;;;;;;;;;;5013287;28;20036;-75
2022/07/14 02:01:51;;;;;;;12.77;4.22;;;;;;;;;;5014405;28;20026;-75
2022/07/14 02:04:18;;;;;;;18.60;4.28;;;;;;;;;;5014654;28;20049;-75
2022/07/14 02:06:46;;;;;;;14.85;4.03;;;;;;;;;;5014420;28;20026;-75
2022/07/14 02:09:12;;;;;;;15.50;3.88;;;;;;;;;;5014527;28;20033;-75
2022/07/14 02:14:23;;;;;;;11.75;3.53;;;;;;;;;;5014437;28;20526;-75
2022/07/14 02:16:49;;;;;;;19.13;4.45;;;;;;;;;;5014049;28;20022;-75
2022/07/14 02:19:15;;;;;;;16.52;4.35;;;;;;;;;;5014060;28;20053;-75
2022/07/14 02:21:41;;;;;;;10.15;3.42;;;;;;;;;;5032964;28;20060;-75
2022/07/14 02:24:08;;;;;;;15.73;4.07;;;;;;;;;;5034012;28;20100;-75
2022/07/14 02:26:34;;;;;;;12.80;4.10;;;;;;;;;;5033898;28;20041;-75
2022/07/14 02:29:01;;;;;;;21.05;3.92;;;;;;;;;;5033846;28;20435;-75
2022/07/14 02:31:27;;;;;;;16.27;3.67;;;;;;;;;;5033502;28;20031;-75
2022/07/14 02:33:53;;;;;;;14.20;3.83;;;;;;;;;;5033549;28;20051;-75
2022/07/14 02:36:19;;;;;;;15.38;4.10;;;;;;;;;;5033339;28;20148;-75
2022/07/14 02:38:45;;;;;;;17.25;3.88;;;;;;;;;;5033543;28;20104;-75
2022/07/14 02:41:11;;;;;;;17.55;4.00;;;;;;;;;;5033328;28;20555;-75
2022/07/14 02:43:37;;;;;;;17.90;3.80;;;;;;;;;;5033479;28;20483;-75
2022/07/14 02:46:03;;;;;;;14.15;4.40;;;;;;;;;;5021180;28;20140;-74
2022/07/14 02:48:29;;;;;;;16.58;3.70;;;;;;;;;;5013728;28;20739;-74
2022/07/14 02:50:59;;;;;;;14.07;3.83;;;;;;;;;;5013403;28;20030;-75
2022/07/14 02:53:25;;;;;;;11.93;3.30;;;;;;;;;;5012633;28;20032;-75
2022/07/14 02:55:51;;;;;;;17.60;3.85;;;;;;;;;;5013451;28;20033;-75
2022/07/14 02:58:18;;;;;;;14.60;4.00;;;;;;;;;;5013503;28;20030;-75
2022/07/14 03:00:44;;;;;;;10.30;3.70;;;;;;;;;;5013434;28;20104;-75
2022/07/14 03:03:10;;;;;;;20.88;4.47;;;;;;;;;;5013478;28;20053;-75
2022/07/14 03:05:36;;;;;;;16.45;3.30;;;;;;;;;;5013309;28;20104;-75
2022/07/14 03:08:02;;;;;;;15.73;3.88;;;;;;;;;;5013331;28;20030;-75
2022/07/14 03:10:28;;;;;;;14.55;3.80;;;;;;;;;;5013457;28;20361;-75
2022/07/14 03:12:54;;;;;;;11.07;3.58;;;;;;;;;;5013288;28;20058;-75
2022/07/14 03:15:20;;;;;;;11.23;3.58;;;;;;;;;;5013076;28;20080;-75
2022/07/14 03:17:46;;;;;;;9.95;3.33;;;;;;;;;;5012997;28;20037;-75
2022/07/14 03:20:13;;;;;;;13.65;4.15;;;;;;;;;;5013128;28;20025;-75
2022/07/14 03:22:39;;;;;;;15.73;3.30;;;;;;;;;;5032887;28;20077;-75
2022/07/14 03:25:08;;;;;;;12.32;3.13;;;;;;;;;;5032800;28;20025;-75
2022/07/14 03:27:35;;;;;;;11.52;4.00;;;;;;;;;;5032852;28;20026;-75
2022/07/14 03:30:04;;;;;;;18.10;4.40;;;;;;;;;;5032480;28;20108;-75
2022/07/14 03:32:30;;;;;;;15.55;4.07;;;;;;;;;;5032565;28;20120;-75
2022/07/14 03:34:57;;;;;;;15.35;3.60;;;;;;;;;;5032539;28;20116;-75
2022/07/14 03:37:24;;;;;;;13.13;3.53;;;;;;;;;;5032503;28;20074;-74
2022/07/14 03:39:50;;;;;;;15.43;4.72;;;;;;;;;;5032279;28;20017;-74
2022/07/14 03:42:16;;;;;;;15.20;4.10;;;;;;;;;;5032401;28;20028;-74
2022/07/14 03:44:43;;;;;;;11.98;3.70;;;;;;;;;;5031347;28;20032;-74
2022/07/14 03:47:09;;;;;;;14.88;3.78;;;;;;;;;;5012702;28;20113;-74
2022/07/14 03:49:35;;;;;;;10.70;3.50;;;;;;;;;;5012629;28;20053;-74
2022/07/14 03:52:02;;;;;;;8.15;3.10;;;;;;;;;;5012642;28;20040;-74
2022/07/14 03:54:28;;;;;;;13.77;3.55;;;;;;;;;;5012523;28;20033;-74
2022/07/14 03:56:54;;;;;;;10.93;3.45;;;;;;;;;;5012419;28;20034;-74
2022/07/14 03:59:20;;;;;;;14.75;3.50;;;;;;;;;;5012613;28;20022;-74
2022/07/14 04:01:46;;;;;;;13.63;3.22;;;;;;;;;;5012212;28;20055;-74
2022/07/14 04:04:12;;;;;;;11.98;3.25;;;;;;;;;;5012344;28;20064;-74
2022/07/14 04:06:38;;;;;;;11.85;3.33;;;;;;;;;;5012044;28;20083;-74
2022/07/14 04:09:05;;;;;;;9.55;3.40;;;;;;;;;;5012300;28;20029;-74
2022/07/14 04:11:31;;;;;;;9.05;2.83;;;;;;;;;;5012727;28;20030;-74
2022/07/14 04:13:57;;;;;;;11.20;3.10;;;;;;;;;;5012304;28;20030;-74
2022/07/14 04:16:23;;;;;;;11.50;3.33;;;;;;;;;;5011985;28;20038;-74
2022/07/14 04:18:49;;;;;;;9.18;3.03;;;;;;;;;;5012163;28;20030;-74
2022/07/14 04:21:15;;;;;;;13.20;3.50;;;;;;;;;;5023143;28;20033;-74
2022/07/14 04:23:41;;;;;;;9.27;3.00;;;;;;;;;;5031911;28;20026;-74
2022/07/14 04:26:07;;;;;;;41.53;3.75;;;;;;;;;;5031753;28;20079;-74
2022/07/14 04:28:33;;;;;;;26.77;3.10;;;;;;;;;;5031844;28;20027;-74
2022/07/14 04:30:59;;;;;;;18.48;3.83;;;;;;;;;;5031746;28;20025;-74
2022/07/14 04:33:25;;;;;;;16.77;3.17;;;;;;;;;;5031734;28;20049;-74
2022/07/14 04:35:51;;;;;;;17.88;2.88;;;;;;;;;;5031561;28;20026;-74
2022/07/14 04:38:17;;;;;;;12.68;3.13;;;;;;;;;;5031891;28;20025;-74
2022/07/14 04:40:53;;;;;;;13.52;3.40;;;;;;;;;;5031696;28;20025;-74
2022/07/14 04:43:20;;;;;;;12.25;3.30;;;;;;;;;;5031774;28;20478;-74
2022/07/14 04:45:46;;;;;;;9.70;3.33;;;;;;;;;;5021852;28;20026;-74
2022/07/14 04:48:12;;;;;;;11.57;3.20;;;;;;;;;;5012049;28;20476;-74
2022/07/14 04:53:23;;;;;;;14.50;3.45;;;;;;;;;;5012050;28;20063;-75
2022/07/14 04:55:49;;;;;;;13.25;3.30;;;;;;;;;;5011789;28;20038;-75
2022/07/14 04:58:16;;;;;;;13.02;3.10;;;;;;;;;;5012014;28;20056;-75
2022/07/14 05:00:42;;;;;;;17.02;3.10;;;;;;;;;;5011718;28;20096;-75
2022/07/14 05:03:08;;;;;;;10.07;3.17;;;;;;;;;;5012025;28;20076;-75
2022/07/14 05:05:34;;;;;;;15.48;3.55;;;;;;;;;;5011667;28;20088;-75
2022/07/14 05:08:00;;;;;;;9.23;3.38;;;;;;;;;;5011948;28;20030;-75
2022/07/14 05:10:26;;;;;;;17.10;3.50;;;;;;;;;;5011897;28;20030;-74
2022/07/14 05:12:52;;;;;;;9.10;3.38;;;;;;;;;;5010717;28;20443;-74
2022/07/14 05:15:18;;;;;;;11.68;3.30;;;;;;;;;;4991995;28;20049;-74
2022/07/14 05:17:44;;;;;;;10.93;3.83;;;;;;;;;;5001500;28;20084;-75
2022/07/14 05:20:11;;;;;;;15.40;3.35;;;;;;;;;;5017722;28;20026;-75
2022/07/14 05:22:38;;;;;;;13.15;3.58;;;;;;;;;;5035310;28;20028;-75
2022/07/14 05:25:07;;;;;;;13.57;3.42;;;;;;;;;;5035163;28;20025;-75
2022/07/14 05:27:33;;;;;;;11.70;3.17;;;;;;;;;;5035192;28;20030;-75
2022/07/14 05:29:59;;;;;;;9.88;2.80;;;;;;;;;;5034962;28;20025;-75
2022/07/14 05:32:25;;;;;;;10.48;2.78;;;;;;;;;;5034857;28;20032;-75
2022/07/14 05:34:52;;;;;;;9.52;3.00;;;;;;;;;;5034855;28;20040;-75
2022/07/14 05:37:18;;;;;;;13.27;2.85;;;;;;;;;;5033555;28;20297;-75
2022/07/14 05:39:44;;;;;;;12.10;2.63;;;;;;;;;;5034853;28;20109;-75
2022/07/14 05:42:11;;;;;;;13.85;3.03;;;;;;;;;;5035002;28;20029;-75
2022/07/14 05:44:37;;;;;;;11.45;2.92;;;;;;;;;;5034405;28;20490;-75
2022/07/14 05:47:03;;;;;;;13.02;3.55;;;;;;;;;;5014545;28;20084;-75
2022/07/14 05:49:30;;;;;;;15.02;3.20;;;;;;;;;;5015017;28;20406;-76
2022/07/14 05:51:56;;;;;;;12.43;3.28;;;;;;;;;;5014815;28;20164;-75
2022/07/14 05:54:22;;;;;;;12.70;3.15;;;;;;;;;;5006676;28;20118;-75
2022/07/14 05:56:48;;;;;;;16.73;3.65;;;;;;;;;;5003300;28;20034;-76
2022/07/14 05:59:14;;;;;;;16.20;3.70;;;;;;;;;;4998477;28;20030;-76
2022/07/14 06:01:40;;;;;;;16.17;3.53;;;;;;;;;;4995062;28;20402;-76
2022/07/14 06:04:06;;;;;;;13.90;3.17;;;;;;;;;;4995131;28;20026;-76
2022/07/14 06:06:32;;;;;;;14.25;2.80;;;;;;;;;;4995013;28;20027;-76
2022/07/14 06:08:58;;;;;;;21.65;2.70;;;;;;;;;;4995095;28;20023;-75
2022/07/14 06:11:24;;;;;;;13.75;2.33;;;;;;;;;;4995279;28;20079;-76
2022/07/14 06:13:50;;;;;;;16.85;2.80;;;;;;;;;;4994951;28;20035;-76
2022/07/14 06:16:16;;;;;;;10.68;2.53;;;;;;;;;;4994681;28;20487;-76
2022/07/14 06:18:42;;;;;;;15.23;2.33;;;;;;;;;;5009566;28;20503;-76
2022/07/14 06:21:09;;;;;;;12.07;2.20;;;;;;;;;;5023046;28;20037;-75
2022/07/14 06:23:35;;;;;;;19.35;2.78;;;;;;;;;;5017499;28;20018;-76
2022/07/14 06:26:07;;;;;;;15.35;3.17;;;;;;;;;;5005084;28;20026;-76
2022/07/14 06:28:33;;;;;;;13.13;2.55;;;;;;;;;;5004094;28;20444;-75
2022/07/14 06:30:59;;;;;;;11.70;2.45;;;;;;;;;;5003078;28;20022;-75
2022/07/14 06:33:25;;;;;;;15.57;3.30;;;;;;;;;;5003378;28;20041;-76
2022/07/14 06:35:51;;;;;;;12.57;2.40;;;;;;;;;;5004566;28;20035;-76
2022/07/14 06:38:17;;;;;;;15.20;2.72;;;;;;;;;;5003055;28;20017;-76
2022/07/14 06:40:43;;;;;;;8.82;2.10;;;;;;;;;;5005507;28;20018;-77
2022/07/14 06:43:10;;;;;;;16.23;2.50;;;;;;;;;;5014011;28;20129;-76
2022/07/14 06:45:36;;;;;;;14.23;2.28;;;;;;;;;;5013618;28;20026;-76
2022/07/14 06:48:02;;;;;;;13.30;2.10;;;;;;;;;;5029147;28;20363;-76
2022/07/14 06:50:28;;;;;;;10.48;1.92;;;;;;;;;;5007632;28;20030;-76
2022/07/14 06:52:54;;;;;;;15.90;2.97;;;;;;;;;;5000520;28;20093;-75
2022/07/14 06:55:20;;;;;;;12.88;2.35;;;;;;;;;;4994097;28;20389;-75
2022/07/14 06:57:46;;;;;;;13.45;2.63;;;;;;;;;;4994239;28;20468;-74
2022/07/14 07:00:12;;;;;;;10.43;2.95;;;;;;;;;;4993953;28;20101;-75
2022/07/14 07:02:40;;;;;;;12.50;2.60;;;;;;;;;;4994166;28;20097;-75
2022/07/14 07:07:51;;;;;;;13.43;3.35;;;;;;;;;;4994304;28;20049;-75
2022/07/14 07:10:17;;;;;;;10.82;2.30;;;;;;;;;;5003144;28;20036;-76
2022/07/14 07:12:43;;;;;;;11.52;2.33;;;;;;;;;;5013538;28;20041;-74
2022/07/14 07:15:10;;;;;;;11.60;2.38;;;;;;;;;;5013176;28;20417;-73
2022/07/14 07:17:36;;;;;;;13.82;2.58;;;;;;;;;;5013305;28;20026;-73
2022/07/14 07:20:02;;;;;;;14.23;2.33;;;;;;;;;;5012891;28;20026;-74
2022/07/14 07:22:28;;;;;;;12.50;2.20;;;;;;;;;;5033115;28;20025;-74
2022/07/14 07:24:54;;;;;;;12.10;2.30;;;;;;;;;;5032933;28;20021;-73
2022/07/14 07:27:20;;;;;;;14.85;2.72;;;;;;;;;;5033227;28;20022;-76
2022/07/14 07:29:46;;;;;;;13.82;2.25;;;;;;;;;;5032871;28;20100;-75
2022/07/14 07:32:12;;;;;;;8.45;1.75;;;;;;;;;;5032708;28;20049;-75
2022/07/14 07:34:38;;;;;;;12.95;1.73;;;;;;;;;;5032461;28;20056;-75
2022/07/14 07:37:05;;;;;;;8.50;1.38;;;;;;;;;;5032508;28;20040;-75
2022/07/14 07:39:33;;;;;;;7.60;1.80;;;;;;;;;;5032283;28;20061;-75
2022/07/14 07:42:01;;;;;;;12.38;1.75;;;;;;;;;;5032653;28;20071;-75
2022/07/14 07:44:27;;;;;;;7.22;1.67;;;;;;;;;;5032328;28;20013;-75
2022/07/14 07:46:53;;;;;;;12.75;1.60;;;;;;;;;;5013041;28;20037;-75
2022/07/14 07:49:19;;;;;;;11.40;1.58;;;;;;;;;;5012489;28;20038;-75
2022/07/14 07:51:45;;;;;;;9.90;2.00;;;;;;;;;;5012434;28;20025;-75
2022/07/14 07:54:11;;;;;;;8.63;2.00;;;;;;;;;;5012907;28;20056;-75
2022/07/14 07:56:37;;;;;;;8.23;1.75;;;;;;;;;;5012417;28;20034;-75
2022/07/14 07:59:03;;;;;;;5.85;1.90;;;;;;;;;;5012749;28;20064;-75
2022/07/14 08:01:29;;;;;;;8.93;1.70;;;;;;;;;;5011107;28;20476;-75
2022/07/14 08:03:55;;;;;;;6.90;1.65;;;;;;;;;;5012530;28;20030;-75
2022/07/14 08:06:21;;;;;;;8.13;1.95;;;;;;;;;;5012451;28;20034;-74
2022/07/14 08:08:47;;;;;;;12.68;1.83;;;;;;;;;;5012559;28;20037;-75
2022/07/14 08:11:13;;;;;;;9.18;2.20;;;;;;;;;;5012692;28;20112;-75
2022/07/14 08:13:39;;;;;;;7.18;1.80;;;;;;;;;;5012555;28;20164;-75
2022/07/14 08:16:05;;;;;;;6.47;1.40;;;;;;;;;;5012112;28;20076;-77
2022/07/14 08:18:32;;;;;;;9.25;1.95;;;;;;;;;;5009458;28;20024;-76
2022/07/14 08:20:58;;;;;;;13.45;2.03;;;;;;;;;;5001032;28;20015;-76
2022/07/14 08:23:26;;;;;;;8.35;1.70;;;;;;;;;;5001208;28;20464;-76
2022/07/14 08:25:52;;;;;;;10.77;1.80;;;;;;;;;;4999407;28;20027;-76
2022/07/14 08:28:19;;;;;;;13.75;2.05;;;;;;;;;;5005936;28;20480;-75
2022/07/14 08:30:45;;;;;;;11.48;1.63;;;;;;;;;;5001758;28;20035;-76
2022/07/14 08:33:11;;;;;;;6.43;1.48;;;;;;;;;;4995469;28;20071;-76
2022/07/14 08:35:37;;;;;;;8.00;1.40;;;;;;;;;;5000891;28;20033;-76
2022/07/14 08:38:03;;;;;;;8.77;1.70;;;;;;;;;;5004319;28;20388;-76
2022/07/14 08:40:29;;;;;;;7.72;1.30;;;;;;;;;;5005815;28;20428;-76
2022/07/14 08:42:57;;;;;;;6.80;1.15;;;;;;;;;;5002974;28;20026;-76
2022/07/14 08:45:27;;;;;;;5.57;1.10;;;;;;;;;;5004954;28;20033;-77
2022/07/14 08:47:53;;;;;;;10.00;1.20;;;;;;;;;;5002300;28;20022;-76
2022/07/14 08:50:23;;;;;;;7.07;1.27;;;;;;;;;;5003936;28;20037;-76
2022/07/14 08:52:49;;;;;;;4.80;1.08;;;;;;;;;;5009080;28;20043;-76
2022/07/14 08:55:16;;;;;;;6.22;1.10;;;;;;;;;;5004236;28;20490;-76
2022/07/14 08:57:42;;;;;;;5.65;1.20;;;;;;;;;;5013422;28;20117;-76
2022/07/14 09:00:11;;;;;;;5.07;1.30;;;;;;;;;;5010357;28;20336;-76
2022/07/14 09:02:38;;;;;;;5.32;1.30;;;;;;;;;;5016117;28;20022;-76
2022/07/14 09:05:05;;;;;;;6.25;0.93;;;;;;;;;;5014019;28;20113;-76
2022/07/14 09:07:33;;;;;;;6.05;1.20;;;;;;;;;;5016100;28;20029;-78
2022/07/14 09:10:03;;;;;;;4.55;0.90;;;;;;;;;;5008557;28;20352;-77
2022/07/14 09:12:30;;;;;;;4.53;1.27;;;;;;;;;;4996491;28;20105;-77
2022/07/14 09:17:51;;;;;;;6.15;1.50;;;;;;;;;;5002871;28;20114;-77
2022/07/14 09:20:17;;;;;;;8.73;1.23;;;;;;;;;;5012841;28;20018;-77
2022/07/14 09:22:44;;;;;;;7.55;1.20;;;;;;;;;;5022041;28;20028;-77
2022/07/14 09:25:11;;;;;;;4.45;1.17;;;;;;;;;;5035732;28;20422;-74
2022/07/14 09:27:37;;;;;;;6.72;1.20;;;;;;;;;;5013302;28;20109;-75
2022/07/14 09:30:05;;;;;;;6.78;0.95;;;;;;;;;;5013411;28;20030;-75
2022/07/14 09:32:44;;;;;;;7.00;1.13;;;;;;;;;;5015687;28;20094;-75
2022/07/14 09:35:11;;;;;;;8.30;1.20;;;;;;;;;;5004784;28;20709;-75
2022/07/14 09:37:38;;;;;;;4.35;1.00;;;;;;;;;;5006066;28;20029;-75
2022/07/14 09:40:06;;;;;;;3.75;1.10;;;;;;;;;;5009986;28;20489;-75
2022/07/14 09:42:50;;;;;;;8.43;1.20;;;;;;;;;;5010624;28;20030;-75
2022/07/14 09:45:16;;;;;;;7.65;1.40;;;;;;;;;;5007940;28;20038;-76
2022/07/14 09:47:59;;;;;;;7.25;1.60;;;;;;;;;;5010872;28;20478;-74
2022/07/14 09:50:34;;;;;;;10.18;1.90;;;;;;;;;;5013293;28;20034;-76
2022/07/14 09:53:09;;;;;;;7.60;1.15;;;;;;;;;;5013298;28;20032;-76
2022/07/14 09:55:36;;;;;;;11.18;1.40;;;;;;;;;;5013170;28;20030;-76
2022/07/14 09:58:05;;;;;;;9.32;1.15;;;;;;;;;;5013623;28;20022;-76
2022/07/14 10:00:31;;;;;;;3.85;1.10;;;;;;;;;;5013245;28;20049;-76
2022/07/14 10:02:58;;;;;;;7.22;1.40;;;;;;;;;;5012984;28;20032;-76
2022/07/14 10:05:24;;;;;;;4.40;1.20;;;;;;;;;;5010678;28;20034;-75
2022/07/14 10:07:51;;;;;;;7.63;1.20;;;;;;;;;;5012700;28;20030;-76
2022/07/14 10:10:18;;;;;;;5.70;1.20;;;;;;;;;;5013392;28;20033;-75
2022/07/14 10:12:45;;;;;;;8.55;1.60;;;;;;;;;;5013182;28;20036;-76
2022/07/14 10:15:13;;;;;;;3.92;1.00;;;;;;;;;;5012809;28;20025;-75
2022/07/14 10:17:40;;;;;;;5.95;0.95;;;;;;;;;;5013212;28;20018;-76
2022/07/14 10:20:08;;;;;;;3.20;0.80;;;;;;;;;;5005183;28;20060;-75
2022/07/14 10:22:35;;;;;;;3.85;0.77;;;;;;;;;;5003101;28;20472;-75
2022/07/14 10:25:02;;;;;;;4.95;0.90;;;;;;;;;;5002267;28;20030;-75
2022/07/14 10:27:29;;;;;;;6.30;0.85;;;;;;;;;;5001389;28;20018;-76
2022/07/14 10:29:56;;;;;;;5.63;0.70;;;;;;;;;;5002934;28;20018;-76
2022/07/14 10:35:28;;;;;;;5.20;0.80;;;;;;;;;;4988817;28;20388;-76
2022/07/14 10:38:10;;;;;;;3.67;0.90;;;;;;;;;;4978060;28;20055;-77
2022/07/14 10:40:36;;;;;;;4.63;0.60;;;;;;;;;;4982405;28;20384;-77
2022/07/14 10:43:06;;;;;;;3.55;0.75;;;;;;;;;;4987776;28;20093;-76
2022/07/14 10:45:33;;;;;;;2.30;0.65;;;;;;;;;;4967388;28;20031;-76
2022/07/14 10:47:59;;;;;;;3.35;0.60;;;;;;;;;;4969743;28;20038;-75
2022/07/14 10:50:26;;;;;;;7.53;0.98;;;;;;;;;;4978463;28;20027;-76
2022/07/14 10:52:55;;;;;;;4.22;0.80;;;;;;;;;;4988726;28;20038;-76
2022/07/14 10:55:22;;;;;;;6.45;0.82;;;;;;;;;;4967611;28;20365;-76
2022/07/14 10:58:01;;;;;;;2.88;0.75;;;;;;;;;;4969197;28;20019;-76
2022/07/14 11:00:40;;;;;;;5.30;0.88;;;;;;;;;;4967372;28;20382;-76
2022/07/14 11:03:22;;;;;;;4.70;1.05;;;;;;;;;;4968790;28;20027;-76
2022/07/14 11:06:00;;;;;;;6.90;1.77;;;;;;;;;;4968495;28;20033;-75
2022/07/14 11:08:27;;;;;;;5.68;0.70;;;;;;;;;;4968523;28;20480;-75
2022/07/14 11:10:54;;;;;;;4.75;0.77;;;;;;;;;;4968199;28;20046;-76
2022/07/14 11:13:20;;;;;;;2.00;0.60;;;;;;;;;;4968666;28;20031;-76
2022/07/14 11:15:50;;;;;;;3.58;0.85;;;;;;;;;;4968202;28;20367;-75
2022/07/14 11:18:24;;;;;;;4.18;0.77;;;;;;;;;;4968318;28;20107;-76
2022/07/14 11:20:56;;;;;;;4.55;0.68;;;;;;;;;;4968514;28;20421;-75
2022/07/14 11:23:23;;;;;;;3.55;0.80;;;;;;;;;;4972165;28;20030;-76
2022/07/14 11:25:53;;;;;;;5.45;0.85;;;;;;;;;;4971830;28;20062;-76
2022/07/14 11:28:38;;;;;;;2.67;0.80;;;;;;;;;;4968699;28;20038;-76
2022/07/14 11:31:17;;;;;;;4.10;0.70;;;;;;;;;;4968582;28;20023;-76
2022/07/14 11:36:32;;;;;;;2.33;0.63;;;;;;;;;;4997563;28;20030;-76
2022/07/14 11:39:25;;;;;;;5.35;0.82;;;;;;;;;;5000165;28;20022;-76
2022/07/14 11:41:51;;;;;;;;;;;;;;;;;;5006341;28;20136;-76
2022/07/14 11:44:40;;;;;;;7.57;1.00;;;;;;;;;;5007716;28;19958;-75
2022/07/14 11:47:07;;;;;;;7.22;0.80;;;;;;;;;;4955771;29;20059;-75
2022/07/14 11:49:33;;;;;;;3.90;0.68;;;;;;;;;;4955791;29;20165;-75
2022/07/14 11:52:00;;;;;;;5.25;1.10;;;;;;;;;;4955800;29;20039;-75
2022/07/14 11:54:27;;;;;;;2.25;0.52;;;;;;;;;;4955657;29;20110;-75
2022/07/14 11:57:11;;;;;;;4.38;0.73;;;;;;;;;;4955960;29;20032;-75
2022/07/14 11:59:42;;;;;;;5.93;1.05;;;;;;;;;;4956344;29;20050;-75
2022/07/14 12:02:14;;;;;;;7.07;0.60;;;;;;;;;;4956070;29;20024;-76
2022/07/14 12:04:53;;;;;;;5.07;0.68;;;;;;;;;;4956222;29;20469;-75
2022/07/14 12:07:20;;;;;;;5.35;0.73;;;;;;;;;;4966322;28;20039;-76
2022/07/14 12:09:47;;;;;;;2.67;0.80;;;;;;;;;;4984762;28;20019;-76
2022/07/14 12:12:13;;;;;;;4.85;0.60;;;;;;;;;;4985416;28;20389;-76
2022/07/14 12:14:46;;;;;;;3.30;0.80;;;;;;;;;;4983308;28;20397;-75
2022/07/14 12:17:13;;;;;;;2.80;0.60;;;;;;;;;;4975867;28;20144;-75
2022/07/14 12:19:39;;;;;;;2.90;0.95;;;;;;;;;;4982935;28;20026;-76
2022/07/14 12:22:06;;;;;;;5.72;0.90;;;;;;;;;;4982610;28;20019;-76
2022/07/14 12:24:32;;;;;;;3.90;0.60;;;;;;;;;;4990638;28;20033;-76
2022/07/14 12:27:05;;;;;;;2.58;0.60;;;;;;;;;;4994598;28;20441;-76
2022/07/14 12:29:31;;;;;;;3.90;0.70;;;;;;;;;;4994569;28;20030;-76
2022/07/14 12:31:59;;;;;;;4.07;1.10;;;;;;;;;;4994399;28;20105;-77
2022/07/14 12:34:25;;;;;;;7.10;0.93;;;;;;;;;;4987946;28;20600;-77
2022/07/14 12:36:51;;;;;;;2.00;0.70;;;;;;;;;;4974877;28;20035;-77
2022/07/14 12:39:18;;;;;;;4.80;0.90;;;;;;;;;;4981640;28;20073;-77
2022/07/14 12:41:46;;;;;;;4.57;0.80;;;;;;;;;;4986935;28;20377;-77
2022/07/14 12:44:12;;;;;;;6.20;0.80;;;;;;;;;;4982060;28;20045;-77
2022/07/14 12:46:38;;;;;;;6.55;0.70;;;;;;;;;;4975978;28;20057;-76
2022/07/14 12:49:06;;;;;;;4.00;1.00;;;;;;;;;;4991255;28;20054;-76
2022/07/14 12:51:37;;;;;;;7.25;1.10;;;;;;;;;;4994049;28;20341;-77
2022/07/14 12:54:15;;;;;;;5.07;0.80;;;;;;;;;;4994109;28;20040;-77
2022/07/14 12:56:44;;;;;;;2.55;0.80;;;;;;;;;;4993272;28;20046;-77
2022/07/14 12:59:12;;;;;;;3.42;0.80;;;;;;;;;;4993636;28;20445;-77
2022/07/14 13:01:53;;;;;;;7.28;1.10;;;;;;;;;;4993708;28;20034;-77
2022/07/14 13:04:28;;;;;;;6.45;1.10;;;;;;;;;;4994069;28;20026;-77
2022/07/14 13:06:56;;;;;;;3.33;0.68;;;;;;;;;;4993697;28;20469;-77
2022/07/14 13:09:22;;;;;;;3.42;0.90;;;;;;;;;;4993673;28;20326;-77
2022/07/14 13:11:48;;;;;;;3.13;1.00;;;;;;;;;;4992737;28;20105;-77
2022/07/14 13:14:15;;;;;;;6.75;0.90;;;;;;;;;;4993578;28;20030;-77
2022/07/14 13:16:45;;;;;;;4.45;0.90;;;;;;;;;;4993506;28;20082;-77
2022/07/14 13:19:14;;;;;;;4.60;0.82;;;;;;;;;;4974760;28;20046;-77
2022/07/14 13:21:45;;;;;;;3.55;0.90;;;;;;;;;;4973579;28;20031;-77
2022/07/14 13:24:19;;;;;;;3.90;0.80;;;;;;;;;;4972138;28;20461;-77
2022/07/14 13:26:45;;;;;;;2.47;0.70;;;;;;;;;;4973611;28;20270;-77
2022/07/14 13:29:11;;;;;;;4.68;0.80;;;;;;;;;;4973670;28;20031;-77
2022/07/14 13:31:37;;;;;;;2.67;0.75;;;;;;;;;;4973275;28;20031;-77
2022/07/14 13:34:03;;;;;;;6.32;0.98;;;;;;;;;;4971728;28;20137;-77
2022/07/14 13:36:30;;;;;;;4.30;0.77;;;;;;;;;;4973289;28;20082;-77
2022/07/14 13:38:56;;;;;;;4.85;0.80;;;;;;;;;;4973380;28;20106;-77
2022/07/14 13:41:23;;;;;;;4.22;1.10;;;;;;;;;;4973342;28;20452;-77
2022/07/14 13:43:56;;;;;;;3.90;1.00;;;;;;;;;;4973470;28;20061;-76
2022/07/14 13:46:22;;;;;;;6.40;1.10;;;;;;;;;;4972978;28;20030;-76
2022/07/14 13:48:49;;;;;;;3.63;0.88;;;;;;;;;;4973299;28;20031;-76
2022/07/14 13:53:59;;;;;;;3.25;1.08;;;;;;;;;;4973189;28;20053;-76
2022/07/14 13:56:27;;;;;;;4.80;1.17;;;;;;;;;;4973008;28;20031;-76
2022/07/14 13:58:53;;;;;;;3.88;0.90;;;;;;;;;;4972502;28;20026;-77
2022/07/14 14:01:19;;;;;;;4.72;0.85;;;;;;;;;;4977314;28;20027;-78
2022/07/14 14:03:46;;;;;;;4.70;0.80;;;;;;;;;;4981510;28;20030;-78
2022/07/14 14:06:14;;;;;;;7.55;1.20;;;;;;;;;;4976835;28;20038;-78
2022/07/14 14:08:40;;;;;;;7.10;0.90;;;;;;;;;;4985747;28;20062;-80
2022/07/14 14:11:06;;;;;;;5.35;1.20;;;;;;;;;;4983025;28;20034;-78
2022/07/14 14:13:33;;;;;;;3.55;1.25;;;;;;;;;;4980537;28;20044;-78
2022/07/14 14:16:00;;;;;;;5.43;0.88;;;;;;;;;;4981872;28;20022;-78
2022/07/14 14:18:27;;;;;;;2.25;0.70;;;;;;;;;;4974166;28;20027;-78
2022/07/14 14:20:53;;;;;;;2.80;0.80;;;;;;;;;;4993804;28;20027;-78
2022/07/14 14:23:20;;;;;;;6.40;1.38;;;;;;;;;;4989110;28;20019;-78
2022/07/14 14:25:47;;;;;;;4.10;1.08;;;;;;;;;;4990523;28;20027;-78
2022/07/14 14:28:14;;;;;;;7.57;0.90;;;;;;;;;;4992618;28;20310;-79
2022/07/14 14:30:40;;;;;;;6.57;0.70;;;;;;;;;;4963683;28;20106;-77
2022/07/14 14:33:06;;;;;;;5.15;0.90;;;;;;;;;;4964422;28;20047;-77
2022/07/14 14:35:33;;;;;;;6.05;1.02;;;;;;;;;;4953409;29;20035;-78
2022/07/14 14:38:00;;;;;;;7.00;1.25;;;;;;;;;;4971207;28;20035;-77
2022/07/14 14:40:26;;;;;;;4.38;0.90;;;;;;;;;;4972825;28;20031;-78
2022/07/14 14:42:52;;;;;;;7.30;1.17;;;;;;;;;;4973769;28;20026;-80
2022/07/14 14:45:18;;;;;;;4.40;1.10;;;;;;;;;;4967419;28;20035;-78
2022/07/14 14:47:44;;;;;;;4.82;0.90;;;;;;;;;;4954043;29;20107;-79
2022/07/14 14:50:11;;;;;;;6.43;0.68;;;;;;;;;;4953743;29;20450;-79
2022/07/14 14:52:37;;;;;;;2.65;0.90;;;;;;;;;;4954331;29;20027;-83
2022/07/14 14:55:04;;;;;;;3.65;1.00;;;;;;;;;;4959931;28;20054;-76
2022/07/14 14:57:35;;;;;;;2.05;0.60;;;;;;;;;;4974380;28;20023;-76